Time;durP1;ratioP1;P1;durP2;ratioP2;P2;SDS_P1;SDS_P2;PMS_P1;PMS_P2;Temp;Humidity;BMP_temperature;BMP_pressure;BME280_temperature;BME280_humidity;BME280_pressure;Samples;Min_cycle;Max_cycle;Signal;HPM_P1;HPM_P2
2022/07/13 00:01:01;;;;;;;0.13;0.13;;;19.20;99.90;;;;;;5052239;28;20049;-74
2022/07/13 00:03:27;;;;;;;0.15;0.10;;;19.20;99.90;;;;;;5051180;28;20114;-74
2022/07/13 00:05:52;;;;;;;0.00;0.00;;;19.20;99.90;;;;;;5035847;28;20037;-74
2022/07/13 00:08:18;;;;;;;0.00;0.00;;;19.20;99.90;;;;;;5052335;28;20036;-74
2022/07/13 00:10:44;;;;;;;0.10;0.10;;;19.20;99.90;;;;;;5052502;28;20040;-74
2022/07/13 00:13:10;;;;;;;2.10;0.40;;;19.20;99.90;;;;;;5055083;28;20278;-74
2022/07/13 00:15:35;;;;;;;0.77;0.30;;;19.10;99.90;;;;;;5054847;28;20048;-74
2022/07/13 00:18:01;;;;;;;0.28;0.22;;;19.20;99.90;;;;;;5054665;28;20047;-75
2022/07/13 00:20:27;;;;;;;0.32;0.28;;;19.10;99.90;;;;;;5055242;28;20407;-74
2022/07/13 00:22:54;;;;;;;0.20;0.10;;;19.10;99.90;;;;;;5054553;28;20041;-74
2022/07/13 00:25:20;;;;;;;1.77;0.65;;;19.00;99.90;;;;;;5055147;28;20056;-74
2022/07/13 00:27:46;;;;;;;0.22;0.20;;;19.00;99.90;;;;;;5054209;28;20037;-74
2022/07/13 00:30:12;;;;;;;0.10;0.10;;;19.00;99.90;;;;;;5054599;28;20482;-73
2022/07/13 00:32:37;;;;;;;0.10;0.10;;;19.00;99.90;;;;;;5054430;28;20049;-74
2022/07/13 00:35:04;;;;;;;0.10;0.10;;;19.00;99.90;;;;;;5054383;28;20063;-74
2022/07/13 00:37:29;;;;;;;0.40;0.40;;;19.00;99.90;;;;;;5053645;28;20045;-74
2022/07/13 00:39:55;;;;;;;0.43;0.28;;;19.00;99.90;;;;;;5054080;28;20537;-74
2022/07/13 00:42:20;;;;;;;0.13;0.13;;;19.00;99.90;;;;;;5054215;28;20064;-74
2022/07/13 00:44:46;;;;;;;0.20;0.20;;;19.00;99.90;;;;;;5054282;28;20063;-74
2022/07/13 00:47:13;;;;;;;0.05;0.05;;;19.10;99.90;;;;;;5053988;28;20044;-74
2022/07/13 00:49:39;;;;;;;0.38;0.22;;;19.00;99.90;;;;;;5035692;28;20045;-74
2022/07/13 00:52:05;;;;;;;0.00;0.00;;;19.20;99.90;;;;;;5053903;28;20403;-74
2022/07/13 00:54:31;;;;;;;0.43;0.20;;;19.10;99.90;;;;;;5053263;28;20067;-74
2022/07/13 00:57:01;;;;;;;0.38;0.38;;;19.10;99.90;;;;;;5053999;28;20041;-74
2022/07/13 00:59:27;;;;;;;0.35;0.30;;;19.20;99.90;;;;;;5053828;28;20507;-75
2022/07/13 01:01:53;;;;;;;0.30;0.30;;;19.20;99.90;;;;;;5053577;28;20088;-74
2022/07/13 01:04:23;;;;;;;0.55;0.25;;;19.10;99.90;;;;;;5053935;28;20391;-74
2022/07/13 01:06:49;;;;;;;0.20;0.20;;;19.20;99.90;;;;;;5053251;28;20041;-74
2022/07/13 01:09:15;;;;;;;0.40;0.40;;;19.10;99.90;;;;;;5040365;28;20456;-74
2022/07/13 01:11:41;;;;;;;0.43;0.30;;;19.10;99.90;;;;;;5033982;28;20470;-74
2022/07/13 01:14:07;;;;;;;0.52;0.45;;;19.20;99.90;;;;;;5033656;28;20029;-74
2022/07/13 01:16:34;;;;;;;0.52;0.40;;;19.20;99.90;;;;;;5037946;28;20056;-74
2022/07/13 01:18:59;;;;;;;0.00;0.00;;;19.10;99.90;;;;;;5053457;28;20077;-73
2022/07/13 01:21:26;;;;;;;0.00;0.00;;;19.20;99.90;;;;;;5053216;28;20072;-75
2022/07/13 01:23:51;;;;;;;0.32;0.30;;;19.20;99.90;;;;;;5054278;28;20045;-73
2022/07/13 01:26:17;;;;;;;0.47;0.28;;;19.30;99.90;;;;;;5053940;28;20041;-74
2022/07/13 01:28:43;;;;;;;1.33;1.02;;;19.30;99.90;;;;;;5053745;28;20128;-74
2022/07/13 01:31:08;;;;;;;0.15;0.15;;;19.30;99.90;;;;;;5053906;28;20037;-74
2022/07/13 01:33:34;;;;;;;0.95;0.77;;;19.30;99.90;;;;;;5053322;28;20041;-74
2022/07/13 01:36:00;;;;;;;1.48;1.08;;;19.30;99.90;;;;;;5053222;28;20041;-74
2022/07/13 01:38:25;;;;;;;0.88;0.73;;;19.30;99.90;;;;;;5053215;28;20134;-74
2022/07/13 01:40:51;;;;;;;0.73;0.52;;;19.40;99.90;;;;;;5054016;28;20047;-73
2022/07/13 01:43:17;;;;;;;2.80;0.90;;;19.40;99.90;;;;;;5053422;28;20051;-74
2022/07/13 01:45:45;;;;;;;0.25;0.25;;;19.40;99.90;;;;;;5053430;28;20041;-74
2022/07/13 01:48:10;;;;;;;0.17;0.15;;;19.40;99.90;;;;;;5052992;28;20450;-74
2022/07/13 01:50:36;;;;;;;0.50;0.30;;;19.40;99.90;;;;;;5053184;28;20037;-74
2022/07/13 01:53:02;;;;;;;0.32;0.32;;;19.40;99.90;;;;;;5053080;28;20175;-74
2022/07/13 01:55:28;;;;;;;0.68;0.60;;;19.30;99.90;;;;;;5053431;28;20053;-73
2022/07/13 01:57:58;;;;;;;0.95;0.60;;;19.30;99.90;;;;;;5053750;28;20099;-74
2022/07/13 02:00:24;;;;;;;0.57;0.43;;;19.30;99.90;;;;;;5057034;28;20052;-74
2022/07/13 02:02:49;;;;;;;0.68;0.50;;;19.20;99.90;;;;;;5073012;28;20037;-74
2022/07/13 02:05:15;;;;;;;0.93;0.70;;;19.30;99.90;;;;;;5072150;28;20044;-73
2022/07/13 02:07:41;;;;;;;2.80;1.20;;;19.30;99.90;;;;;;5072498;28;20403;-74
2022/07/13 02:10:09;;;;;;;0.68;0.47;;;19.30;99.90;;;;;;5073287;28;20072;-74
2022/07/13 02:12:35;;;;;;;0.35;0.35;;;19.30;99.90;;;;;;5072684;28;20403;-74
2022/07/13 02:15:01;;;;;;;1.33;1.02;;;19.40;99.90;;;;;;5072933;28;20050;-74
2022/07/13 02:17:26;;;;;;;2.30;1.23;;;19.40;99.90;;;;;;5072096;28;20051;-74
2022/07/13 02:19:52;;;;;;;1.30;1.05;;;19.40;99.90;;;;;;5072777;28;20502;-73
2022/07/13 02:22:18;;;;;;;0.50;0.32;;;19.50;99.90;;;;;;5072309;28;20051;-74
2022/07/13 02:24:44;;;;;;;1.05;0.55;;;19.60;99.90;;;;;;5072583;28;20092;-74
2022/07/13 02:27:09;;;;;;;0.90;0.52;;;19.50;99.90;;;;;;5066046;28;20044;-73
2022/07/13 02:29:35;;;;;;;0.65;0.47;;;19.50;99.90;;;;;;5072423;28;20033;-74
2022/07/13 02:32:01;;;;;;;0.20;0.20;;;19.50;99.90;;;;;;5072288;28;20518;-74
2022/07/13 02:34:29;;;;;;;2.40;0.60;;;19.50;99.90;;;;;;5071880;28;20040;-73
2022/07/13 02:36:58;;;;;;;0.43;0.43;;;19.50;99.90;;;;;;5071294;28;20051;-74
2022/07/13 02:39:24;;;;;;;0.52;0.52;;;19.40;99.90;;;;;;5072022;28;20056;-74
2022/07/13 02:41:50;;;;;;;2.22;1.27;;;19.30;99.90;;;;;;5071453;28;20032;-74
2022/07/13 02:44:16;;;;;;;0.68;0.68;;;19.30;99.90;;;;;;5053350;28;20044;-74
2022/07/13 02:46:42;;;;;;;0.50;0.40;;;19.30;99.90;;;;;;5071643;28;20513;-74
2022/07/13 02:49:07;;;;;;;1.13;0.95;;;19.30;99.90;;;;;;5071798;28;20040;-73
2022/07/13 02:51:33;;;;;;;1.75;0.40;;;19.30;99.90;;;;;;5072309;28;20048;-73
2022/07/13 02:53:58;;;;;;;1.30;0.93;;;19.30;99.90;;;;;;5071934;28;20422;-74
2022/07/13 02:56:24;;;;;;;0.15;0.15;;;19.20;99.90;;;;;;5071501;28;20068;-74
2022/07/13 02:58:49;;;;;;;0.70;0.50;;;19.20;99.90;;;;;;5071286;28;20098;-73
2022/07/13 03:01:15;;;;;;;1.73;0.80;;;19.10;99.90;;;;;;5060669;28;20059;-74
2022/07/13 03:03:41;;;;;;;0.20;0.20;;;19.10;99.90;;;;;;5051356;28;20048;-74
2022/07/13 03:06:06;;;;;;;1.00;0.73;;;19.10;99.90;;;;;;5051977;28;20045;-74
2022/07/13 03:08:32;;;;;;;0.88;0.80;;;19.10;99.90;;;;;;5051917;28;20045;-73
2022/07/13 03:10:58;;;;;;;1.45;0.90;;;19.00;99.90;;;;;;5051892;28;20488;-73
2022/07/13 03:13:23;;;;;;;0.38;0.38;;;19.10;99.90;;;;;;5051382;28;20123;-74
2022/07/13 03:15:49;;;;;;;0.32;0.25;;;19.00;99.90;;;;;;5051946;28;20049;-73
2022/07/13 03:18:14;;;;;;;0.40;0.38;;;19.00;99.90;;;;;;5051480;28;20056;-75
2022/07/13 03:20:40;;;;;;;0.73;0.47;;;19.10;99.90;;;;;;5051753;28;20036;-74
2022/07/13 03:23:06;;;;;;;0.45;0.28;;;19.00;99.90;;;;;;5051486;28;20041;-74
2022/07/13 03:25:31;;;;;;;0.35;0.35;;;19.00;99.90;;;;;;5051598;28;20048;-73
2022/07/13 03:27:57;;;;;;;0.80;0.63;;;19.10;99.90;;;;;;5051463;28;20120;-73
2022/07/13 03:30:22;;;;;;;0.65;0.65;;;19.00;99.90;;;;;;5051492;28;20045;-74
2022/07/13 03:32:48;;;;;;;0.20;0.20;;;19.00;99.90;;;;;;5051586;28;20041;-74
2022/07/13 03:35:14;;;;;;;1.20;0.73;;;18.90;99.90;;;;;;5051668;28;20068;-74
2022/07/13 03:37:40;;;;;;;0.57;0.52;;;19.00;99.90;;;;;;5051236;28;20037;-73
2022/07/13 03:40:06;;;;;;;0.80;0.73;;;19.00;99.90;;;;;;5051359;28;20559;-73
2022/07/13 03:42:33;;;;;;;1.80;0.65;;;19.00;99.90;;;;;;5050800;28;20095;-74
2022/07/13 03:44:59;;;;;;;0.20;0.15;;;19.00;99.90;;;;;;5051205;28;20099;-73
2022/07/13 03:47:24;;;;;;;1.30;1.13;;;19.00;99.90;;;;;;5051142;28;20041;-74
2022/07/13 03:49:50;;;;;;;0.70;0.55;;;19.00;99.90;;;;;;5050959;28;20164;-73
2022/07/13 03:52:15;;;;;;;0.65;0.50;;;19.00;99.90;;;;;;5051354;28;20510;-74
2022/07/13 03:54:41;;;;;;;0.40;0.38;;;19.20;99.90;;;;;;5051177;28;20091;-74
2022/07/13 03:57:06;;;;;;;0.68;0.68;;;19.10;99.90;;;;;;5050983;28;20052;-74
2022/07/13 03:59:32;;;;;;;0.73;0.60;;;19.00;99.90;;;;;;5050785;28;20040;-74
2022/07/13 04:01:57;;;;;;;1.42;0.82;;;19.00;99.90;;;;;;5050608;28;20695;-74
2022/07/13 04:04:23;;;;;;;0.30;0.30;;;19.10;99.90;;;;;;5050575;28;20063;-75
2022/07/13 04:06:49;;;;;;;0.70;0.45;;;19.10;99.90;;;;;;5050788;28;20513;-78
2022/07/13 04:09:14;;;;;;;0.22;0.22;;;19.10;99.90;;;;;;5050816;28;20041;-74
2022/07/13 04:11:40;;;;;;;2.78;1.00;;;19.10;99.90;;;;;;5050802;28;20043;-75
2022/07/13 04:14:06;;;;;;;0.20;0.20;;;19.10;99.90;;;;;;5051207;28;20418;-76
2022/07/13 04:16:31;;;;;;;0.55;0.47;;;18.90;99.90;;;;;;5050765;28;20052;-75
2022/07/13 04:18:57;;;;;;;0.25;0.20;;;19.10;99.90;;;;;;5051510;28;20073;-74
2022/07/13 04:21:22;;;;;;;0.08;0.08;;;19.10;99.90;;;;;;5051287;28;20049;-74
2022/07/13 04:23:49;;;;;;;0.45;0.45;;;19.10;99.90;;;;;;5050693;28;20033;-74
2022/07/13 04:26:14;;;;;;;1.75;0.47;;;19.10;99.90;;;;;;5040210;28;20125;-75
2022/07/13 04:28:40;;;;;;;0.75;0.32;;;19.10;99.90;;;;;;5051019;28;20124;-74
2022/07/13 04:31:05;;;;;;;0.10;0.10;;;19.20;99.90;;;;;;5054941;28;20464;-75
2022/07/13 04:33:31;;;;;;;1.95;0.32;;;19.20;99.90;;;;;;5055158;28;20049;-74
2022/07/13 04:35:57;;;;;;;0.35;0.35;;;19.70;99.90;;;;;;5054850;28;20041;-75
2022/07/13 04:38:22;;;;;;;0.10;0.10;;;19.30;99.90;;;;;;5054645;28;20068;-74
2022/07/13 04:40:48;;;;;;;0.20;0.20;;;19.30;99.90;;;;;;5054268;28;20045;-74
2022/07/13 04:43:13;;;;;;;0.10;0.10;;;19.30;99.90;;;;;;5054500;28;20041;-74
2022/07/13 04:45:39;;;;;;;1.33;0.57;;;19.40;99.90;;;;;;5054429;28;20045;-74
2022/07/13 04:48:05;;;;;;;1.65;0.43;;;19.40;99.90;;;;;;5054355;28;20048;-74
2022/07/13 04:50:30;;;;;;;0.90;0.52;;;19.40;99.90;;;;;;5054593;28;20048;-74
2022/07/13 04:52:56;;;;;;;1.77;0.47;;;19.50;99.90;;;;;;5054429;28;20048;-74
2022/07/13 04:55:22;;;;;;;0.65;0.57;;;19.50;99.90;;;;;;5054330;28;20175;-75
2022/07/13 04:57:47;;;;;;;1.73;0.77;;;19.50;99.90;;;;;;5054074;28;20045;-74
2022/07/13 05:00:13;;;;;;;0.15;0.08;;;19.60;99.90;;;;;;5053989;28;20480;-74
2022/07/13 05:02:39;;;;;;;1.33;0.77;;;19.70;99.90;;;;;;5053577;28;20388;-74
2022/07/13 05:05:06;;;;;;;1.38;1.27;;;19.70;99.90;;;;;;5054001;28;20044;-74
2022/07/13 05:07:32;;;;;;;1.55;1.10;;;19.80;99.90;;;;;;5053279;28;20041;-74
2022/07/13 05:09:57;;;;;;;0.73;0.45;;;19.80;99.90;;;;;;5050937;28;20060;-75
2022/07/13 05:12:23;;;;;;;0.50;0.40;;;19.90;99.90;;;;;;5048616;28;20647;-74
2022/07/13 05:14:49;;;;;;;0.25;0.25;;;19.90;99.90;;;;;;5049645;28;20548;-74
2022/07/13 05:17:16;;;;;;;3.53;0.50;;;19.90;99.90;;;;;;5032441;28;20272;-74
2022/07/13 05:19:42;;;;;;;1.00;0.77;;;20.60;99.90;;;;;;5049996;28;20045;-74
2022/07/13 05:22:07;;;;;;;0.00;0.00;;;20.20;99.90;;;;;;5050112;28;20037;-74
2022/07/13 05:24:33;;;;;;;0.43;0.28;;;19.90;99.90;;;;;;5049697;28;20445;-74
2022/07/13 05:26:58;;;;;;;0.95;0.40;;;20.00;99.90;;;;;;5049657;28;20372;-74
2022/07/13 05:29:24;;;;;;;0.20;0.20;;;20.00;99.90;;;;;;5053502;28;20126;-73
2022/07/13 05:31:50;;;;;;;0.52;0.25;;;20.10;99.90;;;;;;5053557;28;20130;-73
2022/07/13 05:34:15;;;;;;;0.28;0.17;;;20.10;99.90;;;;;;5054153;28;20049;-74
2022/07/13 05:36:41;;;;;;;0.45;0.28;;;20.20;99.90;;;;;;5053873;28;20494;-73
2022/07/13 05:39:06;;;;;;;0.32;0.32;;;20.30;99.90;;;;;;5053776;28;20414;-74
2022/07/13 05:41:35;;;;;;;0.73;0.35;;;20.30;99.90;;;;;;5052916;28;20128;-74
2022/07/13 05:44:00;;;;;;;0.10;0.10;;;20.40;99.90;;;;;;5035954;28;20407;-74
2022/07/13 05:46:26;;;;;;;0.10;0.10;;;20.50;99.90;;;;;;5053633;28;20049;-74
2022/07/13 05:48:52;;;;;;;0.25;0.25;;;20.60;99.90;;;;;;5053631;28;20073;-74
2022/07/13 05:51:18;;;;;;;0.47;0.40;;;20.70;99.90;;;;;;5053656;28;20069;-73
2022/07/13 05:53:43;;;;;;;2.78;0.65;;;20.80;99.90;;;;;;5053405;28;20045;-74
2022/07/13 05:56:09;;;;;;;0.70;0.47;;;20.90;99.90;;;;;;5053358;28;20041;-74
2022/07/13 05:58:35;;;;;;;0.00;0.00;;;21.00;99.90;;;;;;5053375;28;20047;-75
2022/07/13 06:01:00;;;;;;;1.45;0.73;;;21.20;99.90;;;;;;5053031;28;20053;-74
2022/07/13 06:03:27;;;;;;;0.85;0.63;;;21.30;99.90;;;;;;5053202;28;20045;-74
2022/07/13 06:05:52;;;;;;;1.80;0.80;;;21.50;99.90;;;;;;5053067;28;20132;-74
2022/07/13 06:08:18;;;;;;;0.63;0.40;;;21.60;99.90;;;;;;5052862;28;20124;-74
2022/07/13 06:10:43;;;;;;;0.20;0.20;;;21.80;99.90;;;;;;5053070;28;20033;-74
2022/07/13 06:13:09;;;;;;;0.13;0.13;;;21.90;99.90;;;;;;5052983;28;20103;-74
2022/07/13 06:15:35;;;;;;;0.22;0.10;;;22.20;99.90;;;;;;5053010;28;20136;-74
2022/07/13 06:18:00;;;;;;;0.20;0.20;;;22.10;99.90;;;;;;5052984;28;20048;-74
2022/07/13 06:20:26;;;;;;;0.52;0.52;;;22.20;99.90;;;;;;5052984;28;20045;-75
2022/07/13 06:23:10;;;;;;;0.68;0.52;;;22.40;99.90;;;;;;5052587;28;20132;-74
2022/07/13 06:25:39;;;;;;;4.03;1.10;;;22.50;99.90;;;;;;5052750;28;20044;-74
2022/07/13 06:28:05;;;;;;;0.30;0.30;;;22.60;99.90;;;;;;5053163;28;20043;-74
2022/07/13 06:30:35;;;;;;;12.02;0.55;;;23.90;99.90;;;;;;5052942;28;20128;-74
2022/07/13 06:33:02;;;;;;;0.75;0.63;;;23.00;99.90;;;;;;5051141;28;20048;-75
2022/07/13 06:35:29;;;;;;;0.55;0.55;;;23.30;99.90;;;;;;5051029;28;20091;-75
2022/07/13 06:37:55;;;;;;;0.17;0.17;;;23.50;99.90;;;;;;5050982;28;20095;-74
2022/07/13 06:40:21;;;;;;;0.90;0.82;;;23.60;99.90;;;;;;5049646;28;20049;-75
2022/07/13 06:42:46;;;;;;;1.02;0.63;;;23.70;99.90;;;;;;5048741;28;20048;-75
2022/07/13 06:45:12;;;;;;;0.45;0.22;;;23.90;99.90;;;;;;5048904;28;20462;-74
2022/07/13 06:47:39;;;;;;;4.60;0.80;;;24.10;99.90;;;;;;5048584;28;20112;-74
2022/07/13 06:50:06;;;;;;;0.55;0.38;;;25.10;99.90;;;;;;5048627;28;20049;-74
2022/07/13 06:52:32;;;;;;;0.65;0.50;;;24.40;99.90;;;;;;5048195;28;20049;-74
2022/07/13 06:54:57;;;;;;;0.40;0.28;;;24.50;99.90;;;;;;5048388;28;20053;-74
2022/07/13 06:57:23;;;;;;;0.30;0.20;;;24.70;99.90;;;;;;5048828;28;20102;-75
2022/07/13 06:59:48;;;;;;;2.28;1.25;;;24.80;99.90;;;;;;5048399;28;20065;-74
2022/07/13 07:02:14;;;;;;;2.00;0.73;;;25.50;99.90;;;;;;5060798;28;20060;-75
2022/07/13 07:04:39;;;;;;;0.35;0.35;;;26.40;99.90;;;;;;5048574;28;20123;-74
2022/07/13 07:07:05;;;;;;;0.30;0.30;;;27.30;99.50;;;;;;5048132;28;20041;-75
2022/07/13 07:09:31;;;;;;;2.00;1.15;;;27.60;89.50;;;;;;5048321;28;20037;-74
2022/07/13 07:11:56;;;;;;;2.60;1.17;;;27.90;74.20;;;;;;5048427;28;20415;-75
2022/07/13 07:14:22;;;;;;;0.35;0.35;;;28.30;80.90;;;;;;5048452;28;20072;-75
2022/07/13 07:16:47;;;;;;;8.90;1.38;;;28.70;63.90;;;;;;5051333;28;20510;-75
2022/07/13 07:19:13;;;;;;;1.65;0.63;;;29.00;50.50;;;;;;5052105;28;20037;-76
2022/07/13 07:21:40;;;;;;;0.28;0.22;;;29.50;50.50;;;;;;5034061;28;20044;-76
2022/07/13 07:24:05;;;;;;;0.93;0.60;;;29.70;54.40;;;;;;5052404;28;20077;-75
2022/07/13 07:26:31;;;;;;;0.90;0.55;;;30.10;27.70;;;;;;5052086;28;20521;-75
2022/07/13 07:28:58;;;;;;;3.05;0.50;;;30.10;34.40;;;;;;5051263;28;20092;-76
2022/07/13 07:31:25;;;;;;;1.85;0.57;;;29.40;29.20;;;;;;5051270;28;20507;-75
2022/07/13 07:33:51;;;;;;;1.65;1.10;;;28.30;40.70;;;;;;5051097;28;20441;-75
2022/07/13 07:36:16;;;;;;;1.80;0.52;;;27.80;55.80;;;;;;5051282;28;20041;-75
2022/07/13 07:38:45;;;;;;;0.45;0.45;;;27.30;70.40;;;;;;5050729;28;20491;-75
2022/07/13 07:41:11;;;;;;;0.10;0.10;;;26.60;88.00;;;;;;5051117;28;20454;-75
2022/07/13 07:43:39;;;;;;;5.47;0.85;;;26.40;91.00;;;;;;5051099;28;20055;-76
2022/07/13 07:46:05;;;;;;;0.93;0.75;;;26.50;84.80;;;;;;5051025;28;20047;-75
2022/07/13 07:48:31;;;;;;;4.22;1.23;;;26.60;90.70;;;;;;5051086;28;20045;-75
2022/07/13 07:50:57;;;;;;;1.50;0.88;;;26.40;90.70;;;;;;5051305;28;20398;-75
2022/07/13 07:53:22;;;;;;;0.80;0.60;;;26.40;89.80;;;;;;5051349;28;20080;-75
2022/07/13 07:55:48;;;;;;;0.68;0.57;;;26.50;94.10;;;;;;5051072;28;20147;-75
2022/07/13 07:58:14;;;;;;;1.00;0.55;;;26.70;90.40;;;;;;5051102;28;20514;-75
2022/07/13 08:00:43;;;;;;;0.80;0.68;;;26.60;90.60;;;;;;5051189;28;20072;-75
2022/07/13 08:03:09;;;;;;;0.85;0.57;;;27.20;88.20;;;;;;5051387;28;20400;-75
2022/07/13 08:05:35;;;;;;;0.57;0.52;;;28.00;77.30;;;;;;5037090;28;20073;-74
2022/07/13 08:08:02;;;;;;;3.38;0.68;;;28.10;67.40;;;;;;5054961;28;20137;-75
2022/07/13 08:10:28;;;;;;;2.33;1.85;;;28.80;62.50;;;;;;5055131;28;20152;-75
2022/07/13 08:12:56;;;;;;;1.02;0.77;;;29.10;65.30;;;;;;5055031;28;20136;-75
2022/07/13 08:15:22;;;;;;;0.75;0.55;;;30.00;43.70;;;;;;5037062;28;20053;-76
2022/07/13 08:17:47;;;;;;;2.03;1.08;;;30.70;41.50;;;;;;5055105;28;20037;-75
2022/07/13 08:20:13;;;;;;;0.77;0.50;;;30.70;28.30;;;;;;5054572;28;20072;-75
2022/07/13 08:22:38;;;;;;;0.75;0.55;;;31.00;29.20;;;;;;5054320;28;20488;-75
2022/07/13 08:25:05;;;;;;;3.78;1.88;;;31.40;25.80;;;;;;5054986;28;20076;-75
2022/07/13 08:27:32;;;;;;;1.23;0.75;;;32.10;19.90;;;;;;5054873;28;20037;-75
2022/07/13 08:29:58;;;;;;;0.88;0.68;;;31.70;18.50;;;;;;5054695;28;20049;-75
2022/07/13 08:32:24;;;;;;;2.30;1.33;;;32.00;12.30;;;;;;5054696;28;20072;-75
2022/07/13 08:40:21;;;;;;;0.73;0.63;;;32.40;11.10;;;;;;5054637;28;20080;-76
2022/07/13 08:42:47;;;;;;;0.00;0.00;;;32.30;10.20;;;;;;5054093;28;20134;-76
2022/07/13 08:45:13;;;;;;;0.55;0.30;;;32.90;7.40;;;;;;5054433;28;20037;-76
2022/07/13 08:47:42;;;;;;;0.35;0.28;;;33.10;2.90;;;;;;5054262;28;20041;-75
2022/07/13 08:50:09;;;;;;;0.20;0.20;;;33.30;1.00;;;;;;5053735;28;20048;-75
2022/07/13 08:52:41;;;;;;;0.38;0.38;;;33.50;1.00;;;;;;5054046;28;20443;-75
2022/07/13 08:55:08;;;;;;;0.88;0.45;;;31.80;1.80;;;;;;5054074;28;20416;-75
2022/07/13 08:57:38;;;;;;;0.47;0.45;;;31.00;10.40;;;;;;5054035;28;20041;-75
2022/07/13 09:00:07;;;;;;;0.63;0.45;;;32.30;4.10;;;;;;5053655;28;20049;-76
2022/07/13 09:02:33;;;;;;;1.00;0.65;;;32.40;1.00;;;;;;5053672;28;20045;-75
2022/07/13 09:05:03;;;;;;;0.85;0.40;;;32.80;1.00;;;;;;5053761;28;20102;-75
2022/07/13 09:07:28;;;;;;;1.17;0.55;;;32.50;1.00;;;;;;5053620;28;20112;-75
2022/07/13 09:09:58;;;;;;;0.55;0.35;;;32.40;1.00;;;;;;5053485;28;20045;-75
2022/07/13 09:12:26;;;;;;;0.13;0.13;;;32.90;1.00;;;;;;5053586;28;20112;-75
2022/07/13 09:14:57;;;;;;;0.00;0.00;;;32.60;1.00;;;;;;5053318;28;20041;-76
2022/07/13 09:17:45;;;;;;;0.50;0.30;;;31.40;1.00;;;;;;5053463;28;20049;-76
2022/07/13 09:20:10;;;;;;;0.00;0.00;;;31.30;1.00;;;;;;5053512;28;20095;-76
2022/07/13 09:22:48;;;;;;;0.28;0.22;;;32.40;1.40;;;;;;5052957;28;20049;-76
2022/07/13 09:25:34;;;;;;;0.20;0.10;;;33.40;1.00;;;;;;5053480;28;20055;-76
2022/07/13 09:28:05;;;;;;;0.25;0.20;;;33.70;1.00;;;;;;5053109;28;20040;-76
2022/07/13 09:30:32;;;;;;;0.00;0.00;;;33.60;1.00;;;;;;5052956;28;20045;-76
2022/07/13 09:32:58;;;;;;;0.22;0.10;;;33.10;1.00;;;;;;5053224;28;20107;-75
2022/07/13 09:35:46;;;;;;;2.20;0.43;;;33.00;1.00;;;;;;5053176;28;20446;-76
2022/07/13 09:38:37;;;;;;;0.90;0.28;;;33.70;1.00;;;;;;5052798;28;20041;-76
2022/07/13 09:41:18;;;;;;;0.68;0.40;;;33.20;1.00;;;;;;5052669;28;20041;-76
2022/07/13 09:47:06;;;;;;;3.45;0.93;;;33.50;1.00;;;;;;5053559;28;20055;-77
2022/07/13 09:49:42;;;;;;;8.50;0.38;;;33.60;1.00;;;;;;5053473;28;20067;-72
2022/07/13 09:52:10;;;;;;;3.00;0.65;;;33.60;1.00;;;;;;5054042;28;20032;-74
2022/07/13 09:54:39;;;;;;;1.65;0.52;;;33.00;1.00;;;;;;5054626;28;20045;-75
2022/07/13 09:57:08;;;;;;;0.55;0.38;;;32.80;1.00;;;;;;5054173;28;20037;-74
2022/07/13 09:59:36;;;;;;;0.03;0.00;;;32.30;1.00;;;;;;5053690;28;20048;-75
2022/07/13 10:02:03;;;;;;;0.15;0.15;;;32.20;1.00;;;;;;5070441;28;20080;-75
2022/07/13 10:04:30;;;;;;;0.10;0.10;;;32.00;1.00;;;;;;5073596;28;20418;-75
2022/07/13 10:06:56;;;;;;;0.00;0.00;;;32.20;1.00;;;;;;5073428;28;20052;-74
2022/07/13 10:09:31;;;;;;;1.25;0.40;;;32.00;1.00;;;;;;5054902;28;20047;-74
2022/07/13 10:11:59;;;;;;;0.80;0.38;;;31.40;1.00;;;;;;5072436;28;20495;-75
2022/07/13 10:14:29;;;;;;;0.30;0.30;;;31.20;1.00;;;;;;5072372;28;20044;-76
2022/07/13 10:16:59;;;;;;;0.17;0.10;;;31.10;1.00;;;;;;5071409;28;20040;-74
2022/07/13 10:19:25;;;;;;;0.20;0.20;;;30.70;1.00;;;;;;5072762;28;20487;-76
2022/07/13 10:22:00;;;;;;;0.35;0.20;;;30.20;1.00;;;;;;5068724;28;20406;-76
2022/07/13 10:24:27;;;;;;;0.08;0.08;;;29.90;1.00;;;;;;5062432;28;20055;-76
2022/07/13 10:27:21;;;;;;;4.00;0.88;;;30.30;1.00;;;;;;5064261;28;20044;-78
2022/07/13 10:29:49;;;;;;;0.22;0.20;;;30.30;1.00;;;;;;5056679;28;20589;-77
2022/07/13 10:32:17;;;;;;;0.00;0.00;;;30.50;1.00;;;;;;5061569;28;20052;-78
2022/07/13 10:35:04;;;;;;;0.70;0.30;;;31.00;1.00;;;;;;5067154;28;20043;-78
2022/07/13 10:37:55;;;;;;;0.00;0.00;;;31.30;1.00;;;;;;5070490;28;20441;-77
2022/07/13 10:40:21;;;;;;;6.15;0.30;;;31.50;1.00;;;;;;5070677;28;20538;-77
2022/07/13 10:42:53;;;;;;;0.00;0.00;;;31.70;1.00;;;;;;5071207;28;20088;-76
2022/07/13 10:48:16;;;;;;;0.88;0.57;;;30.80;1.00;;;;;;5070239;28;20048;-77
2022/07/13 10:50:46;;;;;;;0.52;0.43;;;30.80;1.00;;;;;;5070499;28;20131;-76
2022/07/13 10:53:12;;;;;;;2.70;0.47;;;31.40;1.00;;;;;;5070428;28;20052;-76
2022/07/13 10:55:46;;;;;;;0.22;0.20;;;31.40;1.00;;;;;;5071210;28;20089;-75
2022/07/13 10:58:29;;;;;;;1.35;0.38;;;31.90;1.00;;;;;;5071161;28;20041;-77
2022/07/13 11:00:56;;;;;;;0.45;0.40;;;31.90;1.00;;;;;;5052923;28;20049;-77
2022/07/13 11:03:44;;;;;;;0.10;0.10;;;31.60;1.00;;;;;;5070909;28;20124;-78
2022/07/13 11:06:17;;;;;;;0.85;0.55;;;31.20;1.00;;;;;;5070509;28;20048;-77
2022/07/13 11:08:43;;;;;;;0.00;0.00;;;31.50;1.00;;;;;;5052475;28;20063;-77
2022/07/13 11:11:16;;;;;;;0.00;0.00;;;30.80;1.00;;;;;;5070456;28;20490;-77
2022/07/13 11:13:49;;;;;;;0.20;0.20;;;31.20;1.00;;;;;;5070719;28;20048;-78
2022/07/13 11:16:48;;;;;;;0.00;0.00;;;31.00;1.00;;;;;;5070770;28;20112;-78
2022/07/13 11:19:15;;;;;;;0.35;0.20;;;31.00;1.00;;;;;;5070130;28;20506;-78
2022/07/13 11:22:03;;;;;;;0.08;0.08;;;31.50;1.00;;;;;;5070387;28;20091;-78
2022/07/13 11:27:22;;;;;;;0.00;0.00;;;32.90;1.00;;;;;;5072938;28;20059;-78
2022/07/13 11:29:58;;;;;;;0.15;0.13;;;33.50;1.00;;;;;;5072002;28;20105;-74
2022/07/13 11:32:25;;;;;;;0.60;0.40;;;33.40;1.00;;;;;;5072349;28;20044;-73
2022/07/13 11:34:52;;;;;;;0.13;0.13;;;33.00;1.00;;;;;;5072487;28;20047;-74
2022/07/13 11:37:24;;;;;;;0.43;0.35;;;33.50;1.00;;;;;;5072171;28;20048;-73
2022/07/13 11:39:50;;;;;;;9.32;0.95;;;33.40;1.00;;;;;;5075523;28;20036;-73
2022/07/13 11:42:20;;;;;;;0.00;0.00;;;33.40;1.00;;;;;;5076680;28;20057;-75
2022/07/13 11:44:50;;;;;;;0.00;0.00;;;32.50;1.00;;;;;;5076441;28;20055;-75
2022/07/13 11:47:16;;;;;;;0.15;0.10;;;32.70;1.00;;;;;;5075290;28;20566;-77
2022/07/13 11:49:47;;;;;;;0.10;0.03;;;33.30;1.00;;;;;;5075708;28;20080;-76
2022/07/13 11:52:24;;;;;;;0.30;0.30;;;33.90;1.00;;;;;;5075848;28;20076;-76
2022/07/13 11:55:01;;;;;;;0.00;0.00;;;34.40;1.00;;;;;;5075651;28;20051;-76
2022/07/13 11:57:27;;;;;;;0.20;0.15;;;34.10;1.00;;;;;;5058202;28;20045;-77
2022/07/13 12:00:06;;;;;;;0.17;0.13;;;33.10;1.00;;;;;;5075556;28;20040;-77
2022/07/13 12:02:32;;;;;;;0.10;0.10;;;31.90;1.00;;;;;;5055300;28;20048;-76
2022/07/13 12:04:58;;;;;;;0.00;0.00;;;31.30;1.00;;;;;;5055400;28;20102;-76
2022/07/13 12:07:25;;;;;;;0.10;0.10;;;31.40;1.00;;;;;;5055334;28;20116;-77
2022/07/13 12:10:00;;;;;;;0.10;0.10;;;31.60;1.00;;;;;;5055254;28;20041;-76
2022/07/13 12:12:42;;;;;;;1.00;0.30;;;31.80;1.00;;;;;;5055465;28;20041;-76
2022/07/13 12:15:09;;;;;;;0.22;0.20;;;31.90;1.00;;;;;;5055557;28;20045;-76
2022/07/13 12:17:45;;;;;;;0.00;0.00;;;32.10;1.00;;;;;;5055095;28;20068;-76
2022/07/13 12:20:19;;;;;;;0.50;0.30;;;32.50;1.00;;;;;;5054959;28;20053;-76
2022/07/13 12:22:50;;;;;;;16.98;0.25;;;33.50;1.00;;;;;;5055155;28;20368;-76
2022/07/13 12:25:27;;;;;;;0.13;0.10;;;33.00;1.00;;;;;;5055090;28;20110;-76
2022/07/13 12:27:54;;;;;;;0.10;0.10;;;31.60;1.00;;;;;;5054775;28;20041;-75
2022/07/13 12:30:20;;;;;;;0.10;0.10;;;31.00;1.00;;;;;;5054849;28;20132;-76
2022/07/13 12:33:03;;;;;;;0.85;0.52;;;30.80;1.00;;;;;;5055048;28;20041;-75
2022/07/13 12:35:37;;;;;;;0.25;0.15;;;32.00;1.00;;;;;;5055471;28;20079;-77
2022/07/13 12:38:12;;;;;;;0.10;0.10;;;31.60;1.00;;;;;;5054602;28;20048;-77
2022/07/13 12:40:44;;;;;;;0.20;0.10;;;32.30;1.00;;;;;;5055309;28;20429;-76
2022/07/13 12:43:27;;;;;;;0.43;0.25;;;32.00;1.00;;;;;;5054538;28;20128;-77
2022/07/13 12:46:01;;;;;;;0.20;0.20;;;31.70;1.00;;;;;;5054720;28;20037;-77
2022/07/13 12:48:28;;;;;;;0.20;0.20;;;32.30;1.00;;;;;;5054146;28;20067;-76
2022/07/13 12:51:00;;;;;;;4.40;0.30;;;32.50;1.00;;;;;;5054057;28;20654;-76
2022/07/13 12:54:04;;;;;;;0.13;0.03;;;32.40;1.00;;;;;;5054619;28;20052;-76
2022/07/13 12:56:49;;;;;;;2.22;0.63;;;32.10;1.00;;;;;;4953996;29;20047;-77
2022/07/13 12:59:22;;;;;;;0.55;0.40;;;31.60;1.00;;;;;;4954485;29;20122;-76
2022/07/13 13:01:48;;;;;;;0.28;0.20;;;32.60;1.00;;;;;;5021513;28;20141;-76
2022/07/13 13:04:16;;;;;;;0.00;0.00;;;32.30;1.00;;;;;;5054729;28;20052;-77
2022/07/13 13:06:45;;;;;;;0.20;0.10;;;32.40;1.00;;;;;;5054569;28;20055;-77
2022/07/13 13:09:13;;;;;;;10.65;1.40;;;33.00;1.00;;;;;;5054289;28;20037;-77